createdAt,value
2023-02-13T00:00:20.899Z,102196.41
2023-02-13T00:02:49.964Z,102184.84
2023-02-13T00:05:17.620Z,102186.91
2023-02-13T00:07:45.051Z,102188.56
2023-02-13T00:10:12.750Z,102194.72
2023-02-13T00:12:40.539Z,102188.88
2023-02-13T00:15:08.977Z,102187.94
2023-02-13T00:17:36.769Z,102186.22
2023-02-13T00:22:59.769Z,102177.66
2023-02-13T00:25:27.439Z,102182.28
2023-02-13T00:27:54.919Z,102183.28
2023-02-13T00:30:22.786Z,102189.50
2023-02-13T00:32:51.794Z,102186.13
2023-02-13T00:35:19.339Z,102189.28
2023-02-13T00:37:46.802Z,102180.59
2023-02-13T00:40:15.729Z,102181.03
2023-02-13T00:45:41.259Z,102180.91
2023-02-13T00:48:08.901Z,102182.38
2023-02-13T00:50:36.318Z,102178.59
2023-02-13T00:53:03.721Z,102177.41
2023-02-13T00:55:32.530Z,102181.03
2023-02-13T00:57:59.923Z,102185.59
2023-02-13T01:00:27.412Z,102180.72
2023-02-13T01:02:54.952Z,102179.69
2023-02-13T01:08:21.533Z,102178.19
2023-02-13T01:10:50.630Z,102176.19
2023-02-13T01:13:19.176Z,102186.06
2023-02-13T01:15:47.536Z,102180.84
2023-02-13T01:21:19.019Z,102171.41
2023-02-13T01:23:46.961Z,102180.31
2023-02-13T01:26:18.523Z,102176.50
2023-02-13T01:28:46.007Z,102180.50
2023-02-13T01:31:13.663Z,102173.53
2023-02-13T01:33:41.119Z,102178.06
2023-02-13T01:36:10.055Z,102172.13
2023-02-13T01:38:47.018Z,102165.38
2023-02-13T01:41:16.266Z,102164.16
2023-02-13T01:43:49.260Z,102164.00
2023-02-13T01:46:20.513Z,102162.94
2023-02-13T01:48:49.183Z,102164.19
2023-02-13T01:54:07.288Z,102166.00
2023-02-13T01:56:38.237Z,102154.44
2023-02-13T01:59:08.734Z,102149.13
2023-02-13T02:01:36.287Z,102150.44
2023-02-13T02:04:08.502Z,102146.59
2023-02-13T02:06:38.622Z,102146.47
2023-02-13T02:09:09.600Z,102149.78
2023-02-13T02:14:41.766Z,102146.16
2023-02-13T02:17:11.962Z,102138.94
2023-02-13T02:19:43.111Z,102142.44
2023-02-13T02:22:42.082Z,102143.59
2023-02-13T02:25:23.437Z,102141.00
2023-02-13T02:28:04.727Z,102136.19
2023-02-13T02:30:51.632Z,102133.88
2023-02-13T02:33:34.174Z,102134.19
2023-02-13T02:36:09.554Z,102135.34
2023-02-13T02:38:46.178Z,102130.03
2023-02-13T02:41:36.995Z,102131.97
2023-02-13T02:44:13.011Z,102136.31
2023-02-13T02:47:22.926Z,102126.25
2023-02-13T02:50:01.792Z,102127.94
2023-02-13T02:52:40.532Z,102132.81
2023-02-13T02:58:32.766Z,102126.84
2023-02-13T03:01:20.249Z,102126.88
2023-02-13T03:04:06.105Z,102115.53
2023-02-13T03:09:58.277Z,102110.22
2023-02-13T03:15:32.670Z,102111.88
2023-02-13T03:18:17.836Z,102107.25
2023-02-13T03:21:05.492Z,102107.34
2023-02-13T03:23:44.632Z,102098.44
2023-02-13T03:26:33.095Z,102099.22
2023-02-13T03:29:25.948Z,102105.97
2023-02-13T03:32:01.273Z,102105.75
2023-02-13T03:34:51.262Z,102101.13
2023-02-13T03:37:38.474Z,102111.88
2023-02-13T03:40:08.737Z,102108.59
2023-02-13T03:42:41.171Z,102107.84
2023-02-13T03:45:29.978Z,102112.28
2023-02-13T03:47:58.681Z,102114.53
2023-02-13T03:50:26.108Z,102116.41
2023-02-13T03:52:56.467Z,102118.78
2023-02-13T03:55:44.693Z,102123.66
2023-02-13T03:58:33.951Z,102117.41
2023-02-13T04:01:04.855Z,102115.31
2023-02-13T04:03:36.790Z,102112.97
2023-02-13T04:06:06.998Z,102112.78
2023-02-13T04:08:34.453Z,102113.06
2023-02-13T04:14:02.806Z,102109.38
2023-02-13T04:16:34.290Z,102108.75
2023-02-13T04:19:02.388Z,102116.69
2023-02-13T04:21:33.564Z,102116.91
2023-02-13T04:24:01.055Z,102120.50
2023-02-13T04:26:38.922Z,102125.81
2023-02-13T04:31:56.666Z,102125.47
2023-02-13T04:34:24.123Z,102121.75
2023-02-13T04:36:51.600Z,102123.38
2023-02-13T04:42:22.532Z,102126.31
2023-02-13T04:47:54.208Z,102130.22
2023-02-13T04:50:22.346Z,102124.69
2023-02-13T04:52:51.711Z,102119.59
2023-02-13T04:55:19.214Z,102116.34
2023-02-13T04:57:46.955Z,102106.03
2023-02-13T05:00:15.039Z,102110.28
2023-02-13T05:02:42.454Z,102105.63
2023-02-13T05:07:59.570Z,102103.50
2023-02-13T05:10:27.231Z,102101.91
2023-02-13T05:12:54.973Z,102101.19
2023-02-13T05:15:23.422Z,102101.22
2023-02-13T05:17:51.514Z,102108.94
2023-02-13T05:20:19.266Z,102102.59
2023-02-13T05:23:04.848Z,102099.94
2023-02-13T05:25:34.018Z,102096.97
2023-02-13T05:31:02.595Z,102107.06
2023-02-13T05:33:30.299Z,102113.28
2023-02-13T05:35:57.760Z,102114.66
2023-02-13T05:38:25.182Z,102111.81
2023-02-13T05:40:53.973Z,102111.63
2023-02-13T05:43:21.502Z,102109.59
2023-02-13T05:45:49.126Z,102116.56
2023-02-13T05:48:16.545Z,102117.31
2023-02-13T05:50:44.163Z,102124.22
2023-02-13T05:53:11.582Z,102126.16
2023-02-13T05:55:39.815Z,102120.28
2023-02-13T05:58:09.429Z,102128.13
2023-02-13T06:00:36.951Z,102122.00
2023-02-13T06:03:04.536Z,102121.88
2023-02-13T06:05:32.136Z,102125.38
2023-02-13T06:07:59.644Z,102130.28
2023-02-13T06:10:27.059Z,102130.78
2023-02-13T06:12:54.482Z,102112.91
2023-02-13T06:18:21.747Z,102130.91
2023-02-13T06:20:49.170Z,102132.28
2023-02-13T06:23:16.631Z,102133.84
2023-02-13T06:25:44.129Z,102143.09
2023-02-13T06:28:11.600Z,102146.59
2023-02-13T06:30:39.503Z,102142.44
2023-02-13T06:33:07.251Z,102142.66
2023-02-13T06:35:36.026Z,102145.22
2023-02-13T06:38:03.464Z,102157.47
2023-02-13T06:40:31.007Z,102148.91
2023-02-13T06:42:58.438Z,102155.44
2023-02-13T06:45:25.840Z,102158.44
2023-02-13T06:47:53.287Z,102156.41
2023-02-13T06:50:20.973Z,102153.47
2023-02-13T06:53:26.181Z,102154.28
2023-02-13T06:55:55.782Z,102159.28
2023-02-13T06:58:24.466Z,102162.81
2023-02-13T07:03:50.235Z,102158.13
2023-02-13T07:06:18.664Z,102172.03
2023-02-13T07:11:24.431Z,102166.50
2023-02-13T07:16:54.239Z,102163.84
2023-02-13T07:19:21.668Z,102165.53
2023-02-13T07:21:49.063Z,102167.78
2023-02-13T07:24:16.535Z,102174.13
2023-02-13T07:26:45.341Z,102161.84
2023-02-13T07:29:12.795Z,102163.53
2023-02-13T07:32:07.045Z,102171.78
2023-02-13T07:34:34.542Z,102166.69
2023-02-13T07:37:01.942Z,102168.41
2023-02-13T07:39:31.684Z,102168.09
2023-02-13T07:42:00.440Z,102165.66
2023-02-13T07:44:27.858Z,102176.88
2023-02-13T07:46:55.280Z,102175.88
2023-02-13T07:49:22.727Z,102179.44
2023-02-13T07:51:50.215Z,102178.63
2023-02-13T07:54:17.677Z,102174.81
2023-02-13T07:56:45.102Z,102172.38
2023-02-13T07:59:13.937Z,102171.53
2023-02-13T08:01:41.400Z,102178.94
2023-02-13T08:04:08.913Z,102174.59
2023-02-13T08:06:36.394Z,102182.41
2023-02-13T08:09:21.318Z,102172.97
2023-02-13T08:14:32.674Z,102184.63
2023-02-13T08:17:00.879Z,102181.06
2023-02-13T08:19:28.494Z,102184.06
2023-02-13T08:21:56.008Z,102182.66
2023-02-13T08:24:23.444Z,102163.44
2023-02-13T08:26:50.897Z,102173.03
2023-02-13T08:29:18.514Z,102178.97
2023-02-13T08:31:47.480Z,102176.91
2023-02-13T08:37:03.338Z,102179.56
2023-02-13T08:39:30.777Z,102173.97
2023-02-13T08:41:58.258Z,102179.34
2023-02-13T08:44:25.737Z,102176.91
2023-02-13T08:49:56.563Z,102170.97
2023-02-13T08:52:24.458Z,102183.78
2023-02-13T08:54:51.905Z,102175.41
2023-02-13T08:57:19.318Z,102177.09
2023-02-13T09:02:53.779Z,102184.03
2023-02-13T09:08:25.546Z,102180.41
2023-02-13T09:10:57.454Z,102182.84
2023-02-13T09:13:24.851Z,102185.72
2023-02-13T09:15:52.286Z,102186.16
2023-02-13T09:18:19.870Z,102181.91
2023-02-13T09:20:47.287Z,102186.22
2023-02-13T09:23:14.700Z,102188.94
2023-02-13T09:25:43.446Z,102184.66
2023-02-13T09:28:10.893Z,102183.66
2023-02-13T09:30:38.373Z,102184.81
2023-02-13T09:33:11.046Z,102187.44
2023-02-13T09:35:41.286Z,102182.25
2023-02-13T09:38:08.711Z,102191.75
2023-02-13T09:43:44.732Z,102180.78
2023-02-13T09:46:14.580Z,102182.81
2023-02-13T09:48:44.991Z,102184.69
2023-02-13T09:51:16.553Z,102193.50
2023-02-13T09:56:42.722Z,102191.81
2023-02-13T09:59:19.878Z,102191.56
2023-02-13T10:01:49.148Z,102200.81
2023-02-13T10:04:28.610Z,102192.16
2023-02-13T10:07:06.117Z,102190.13
2023-02-13T10:09:40.251Z,102194.72
2023-02-13T10:12:21.967Z,102187.56
2023-02-13T10:14:59.820Z,102189.00
2023-02-13T10:17:31.408Z,102188.03
2023-02-13T10:20:02.492Z,102197.13
2023-02-13T10:22:32.122Z,102190.94
2023-02-13T10:28:01.740Z,102191.06
2023-02-13T10:30:33.255Z,102181.72
2023-02-13T10:33:20.877Z,102184.97
2023-02-13T10:35:55.639Z,102177.38
2023-02-13T10:38:24.652Z,102189.47
2023-02-13T10:41:14.066Z,102190.34
2023-02-13T10:43:50.423Z,102188.22
2023-02-13T10:49:40.461Z,102183.34
2023-02-13T10:52:16.085Z,102178.34
2023-02-13T10:54:58.218Z,102179.00
2023-02-13T10:57:29.498Z,102179.34
2023-02-13T11:00:05.861Z,102170.88
2023-02-13T11:05:46.479Z,102179.66
2023-02-13T11:08:19.138Z,102174.88
2023-02-13T11:10:46.551Z,102167.97
2023-02-13T11:13:19.303Z,102166.59
2023-02-13T11:16:04.642Z,102155.81
2023-02-13T11:18:34.251Z,102167.72
2023-02-13T11:21:08.778Z,102167.44
2023-02-13T11:23:39.762Z,102159.97
2023-02-13T11:26:09.831Z,102161.47
2023-02-13T11:28:39.889Z,102147.72
2023-02-13T11:31:12.766Z,102163.56
2023-02-13T11:33:40.595Z,102158.88
2023-02-13T11:36:11.547Z,102157.91
2023-02-13T11:41:51.544Z,102150.53
2023-02-13T11:44:23.320Z,102142.28
2023-02-13T11:46:52.738Z,102144.66
2023-02-13T11:49:22.736Z,102143.09
2023-02-13T11:51:53.730Z,102141.34
2023-02-13T11:54:33.918Z,102138.75
2023-02-13T11:57:05.073Z,102138.66
2023-02-13T11:59:40.140Z,102142.91
2023-02-13T12:02:17.594Z,102141.19
2023-02-13T12:07:49.434Z,102140.34
2023-02-13T12:10:20.952Z,102140.72
2023-02-13T12:12:53.178Z,102136.13
2023-02-13T12:15:23.082Z,102131.34
2023-02-13T12:20:54.833Z,102123.94
2023-02-13T12:23:31.562Z,102115.16
2023-02-13T12:26:22.829Z,102116.63
2023-02-13T12:29:13.163Z,102127.50
2023-02-13T12:31:48.517Z,102117.97
2023-02-13T12:34:26.467Z,102116.59
2023-02-13T12:37:02.397Z,102110.53
2023-02-13T12:42:41.644Z,102105.91
2023-02-13T12:45:21.399Z,102100.09
2023-02-13T12:48:01.721Z,102097.38
2023-02-13T12:50:36.694Z,102101.16
2023-02-13T12:53:27.498Z,102090.03
2023-02-13T12:56:17.023Z,102093.09
2023-02-13T12:58:58.512Z,102089.25
2023-02-13T13:01:45.312Z,102079.41
2023-02-13T13:04:18.949Z,102075.31
2023-02-13T13:07:08.036Z,102072.06
2023-02-13T13:10:17.904Z,102062.75
2023-02-13T13:12:52.373Z,102051.44
2023-02-13T13:15:27.994Z,102054.50
2023-02-13T13:18:04.844Z,102052.47
2023-02-13T13:20:51.403Z,102048.03
2023-02-13T13:23:21.958Z,102052.06
2023-02-13T13:25:57.384Z,102060.09
2023-02-13T13:28:27.187Z,102051.13
2023-02-13T13:30:56.687Z,102055.97
2023-02-13T13:33:25.590Z,102049.31
2023-02-13T13:35:59.795Z,102048.09
2023-02-13T13:38:38.997Z,102041.22
2023-02-13T13:41:12.413Z,102047.38
2023-02-13T13:43:44.634Z,102043.88
2023-02-13T13:46:16.556Z,102043.22
2023-02-13T13:49:01.508Z,102039.38
2023-02-13T13:51:30.503Z,102036.03
2023-02-13T13:54:35.717Z,102044.84
2023-02-13T13:57:09.075Z,102039.78
2023-02-13T14:02:44.274Z,102038.06
2023-02-13T14:05:21.796Z,102025.78
2023-02-13T14:07:50.299Z,102028.81
2023-02-13T14:11:08.801Z,102030.47
2023-02-13T14:13:38.718Z,102020.84
2023-02-13T14:16:08.229Z,102026.09
2023-02-13T14:18:38.314Z,102021.91
2023-02-13T14:21:06.178Z,102022.41
2023-02-13T14:23:36.822Z,102022.88
2023-02-13T14:26:37.327Z,102018.75
2023-02-13T14:29:24.089Z,102022.91
2023-02-13T14:35:19.695Z,102013.81
2023-02-13T14:37:51.946Z,102026.63
2023-02-13T14:40:26.977Z,102012.72
2023-02-13T14:42:56.295Z,102016.91
2023-02-13T14:48:14.772Z,102008.22
2023-02-13T14:50:47.931Z,102007.84
2023-02-13T14:56:23.473Z,102010.31
2023-02-13T14:58:52.813Z,102015.97
2023-02-13T15:01:27.742Z,102010.16
2023-02-13T15:04:00.255Z,102012.94
2023-02-13T15:06:33.286Z,102005.69
2023-02-13T15:09:03.267Z,102005.00
2023-02-13T15:11:38.670Z,102000.69
2023-02-13T15:14:26.172Z,102001.25
2023-02-13T15:20:05.941Z,102001.16
2023-02-13T15:25:39.795Z,101986.97
2023-02-13T15:28:08.573Z,101978.97
2023-02-13T15:30:37.542Z,101981.09
2023-02-13T15:33:17.034Z,101983.53
2023-02-13T15:38:42.841Z,101980.75
2023-02-13T15:41:14.037Z,101982.47
2023-02-13T15:43:43.901Z,101982.94
2023-02-13T15:46:20.117Z,101991.75
2023-02-13T15:48:47.942Z,101984.66
2023-02-13T15:51:19.822Z,101995.69
2023-02-13T15:56:52.994Z,101979.31
2023-02-13T15:59:21.226Z,101983.22
2023-02-13T16:01:50.860Z,101973.81
2023-02-13T16:04:19.704Z,101981.50
2023-02-13T16:09:45.281Z,101979.16
2023-02-13T16:12:22.686Z,101977.66
2023-02-13T16:14:54.181Z,101971.50
2023-02-13T16:17:28.776Z,101962.03
2023-02-13T16:20:00.049Z,101976.22
2023-02-13T16:22:33.979Z,101964.41
2023-02-13T16:25:16.030Z,101966.16
2023-02-13T16:27:46.135Z,101968.56
2023-02-13T16:30:33.771Z,101969.75
2023-02-13T16:33:28.982Z,101972.09
2023-02-13T16:35:57.696Z,101970.88
2023-02-13T16:38:32.127Z,101972.59
2023-02-13T16:41:01.220Z,101973.13
2023-02-13T16:43:52.449Z,101982.88
2023-02-13T16:46:31.262Z,101983.09
2023-02-13T16:49:01.739Z,101983.94
2023-02-13T16:51:37.827Z,101983.09
2023-02-13T16:54:07.302Z,101990.47
2023-02-13T16:56:38.953Z,101985.06
2023-02-13T16:59:21.955Z,101983.44
2023-02-13T17:01:50.040Z,101985.06
2023-02-13T17:04:22.284Z,101990.75
2023-02-13T17:06:54.699Z,101993.84
2023-02-13T17:12:24.982Z,101992.78
2023-02-13T17:14:55.959Z,102000.50
2023-02-13T17:17:23.978Z,102009.56
2023-02-13T17:19:51.388Z,102004.59
2023-02-13T17:22:22.805Z,102001.31
2023-02-13T17:24:50.262Z,102007.22
2023-02-13T17:27:17.733Z,102008.06
2023-02-13T17:29:45.176Z,102006.97
2023-02-13T17:32:19.120Z,102007.19
2023-02-13T17:34:47.172Z,102006.75
2023-02-13T17:37:18.703Z,102008.22
2023-02-13T17:39:46.725Z,102007.34
2023-02-13T17:42:18.399Z,102002.44
2023-02-13T17:44:46.313Z,102003.53
2023-02-13T17:47:13.844Z,101996.94
2023-02-13T17:49:42.748Z,101995.94
2023-02-13T17:55:25.353Z,102000.16
2023-02-13T17:57:54.076Z,101995.75
2023-02-13T18:00:22.075Z,101998.31
2023-02-13T18:02:50.974Z,101989.13
2023-02-13T18:05:20.365Z,101997.22
2023-02-13T18:08:12.940Z,101992.28
2023-02-13T18:10:40.495Z,101993.91
2023-02-13T18:15:56.263Z,101993.53
2023-02-13T18:18:23.708Z,101981.31
2023-02-13T18:20:58.329Z,101981.00
2023-02-13T18:23:26.179Z,101989.41
2023-02-13T18:28:56.243Z,101993.44
2023-02-13T18:31:23.874Z,101993.03
2023-02-13T18:33:51.382Z,101994.16
2023-02-13T18:36:20.143Z,101990.47
2023-02-13T18:38:47.580Z,101988.00
2023-02-13T18:41:15.020Z,101985.28
2023-02-13T18:43:42.996Z,101978.38
2023-02-13T18:46:10.425Z,101986.53
2023-02-13T18:48:37.928Z,101982.03
2023-02-13T18:51:05.928Z,101991.31
2023-02-13T18:56:33.562Z,101984.06
2023-02-13T18:59:00.955Z,101987.00
2023-02-13T19:01:28.421Z,101984.50
2023-02-13T19:03:55.881Z,101989.78
2023-02-13T19:06:24.903Z,101983.38
2023-02-13T19:11:56.590Z,101991.03
2023-02-13T19:14:25.806Z,101998.94
2023-02-13T19:16:53.963Z,101987.97
2023-02-13T19:19:21.356Z,101994.13
2023-02-13T19:21:48.773Z,101983.47
2023-02-13T19:24:16.239Z,101991.91
2023-02-13T19:26:44.526Z,101985.94
2023-02-13T19:29:13.270Z,101991.09
2023-02-13T19:31:41.264Z,101990.66
2023-02-13T19:34:08.790Z,101989.66
2023-02-13T19:36:36.193Z,101996.81
2023-02-13T19:39:05.476Z,101993.19
2023-02-13T19:41:33.401Z,101994.50
2023-02-13T19:44:01.135Z,101994.75
2023-02-13T19:46:31.358Z,102006.47
2023-02-13T19:48:59.306Z,101999.69
2023-02-13T19:51:28.885Z,101997.47
2023-02-13T19:53:58.712Z,101999.41
2023-02-13T19:56:27.396Z,101992.25
2023-02-13T19:58:55.419Z,101989.34
2023-02-13T20:01:24.656Z,101985.94
2023-02-13T20:03:54.177Z,101986.16
2023-02-13T20:06:23.471Z,101985.31
2023-02-13T20:08:51.411Z,101984.34
2023-02-13T20:11:21.491Z,101984.38
2023-02-13T20:13:49.242Z,101979.59
2023-02-13T20:16:17.542Z,101977.66
2023-02-13T20:18:45.236Z,101974.44
2023-02-13T20:21:16.071Z,101982.66
2023-02-13T20:23:44.385Z,101985.91
2023-02-13T20:26:14.556Z,101983.22
2023-02-13T20:28:43.761Z,101986.16
2023-02-13T20:31:11.910Z,101980.91
2023-02-13T20:33:40.111Z,101984.28
2023-02-13T20:36:11.760Z,101984.28
2023-02-13T20:38:40.630Z,101987.06
2023-02-13T20:41:09.265Z,101986.22
2023-02-13T20:43:36.890Z,101983.00
2023-02-13T20:46:04.926Z,101985.84
2023-02-13T20:48:32.727Z,101978.44
2023-02-13T20:51:01.174Z,101977.34
2023-02-13T20:53:30.238Z,101974.03
2023-02-13T20:56:04.766Z,101975.22
2023-02-13T20:58:32.915Z,101971.22
2023-02-13T21:01:01.187Z,101974.72
2023-02-13T21:03:28.927Z,101967.75
2023-02-13T21:05:56.677Z,101967.13
2023-02-13T21:08:24.371Z,101969.59
2023-02-13T21:10:51.825Z,101971.97
2023-02-13T21:13:20.789Z,101966.41
2023-02-13T21:15:50.438Z,101966.84
2023-02-13T21:21:13.691Z,101966.41
2023-02-13T21:23:41.672Z,101962.63
2023-02-13T21:26:11.270Z,101956.56
2023-02-13T21:28:41.186Z,101971.66
2023-02-13T21:31:34.732Z,101973.09
2023-02-13T21:34:04.202Z,101971.88
2023-02-13T21:36:32.683Z,101974.09
2023-02-13T21:39:00.752Z,101975.78
2023-02-13T21:41:28.489Z,101978.88
2023-02-13T21:43:57.245Z,101973.16
2023-02-13T21:46:26.378Z,101979.56
2023-02-13T21:48:55.065Z,101968.47
2023-02-13T21:54:21.250Z,101973.34
2023-02-13T21:56:48.723Z,101960.47
2023-02-13T21:59:18.192Z,101969.19
2023-02-13T22:01:46.767Z,101968.91
2023-02-13T22:04:14.334Z,101976.06
2023-02-13T22:06:41.803Z,101968.59
2023-02-13T22:12:07.356Z,101968.91
2023-02-13T22:14:36.083Z,101973.41
2023-02-13T22:19:52.239Z,101977.84
2023-02-13T22:22:19.676Z,101980.53
2023-02-13T22:24:47.097Z,101980.63
2023-02-13T22:27:14.510Z,101974.13
2023-02-13T22:29:43.258Z,101982.88
2023-02-13T22:32:10.767Z,101981.38
2023-02-13T22:34:38.331Z,101980.00
2023-02-13T22:37:43.165Z,101985.56
2023-02-13T22:40:11.206Z,101979.50
2023-02-13T22:45:42.561Z,101977.00
2023-02-13T22:48:10.058Z,101975.66
2023-02-13T22:50:37.456Z,101979.66
2023-02-13T22:53:04.890Z,101976.94
2023-02-13T22:55:33.771Z,101968.91
2023-02-13T23:01:03.906Z,101958.66
2023-02-13T23:03:33.183Z,101964.75
2023-02-13T23:06:00.651Z,101953.66
2023-02-13T23:08:28.116Z,101966.88
2023-02-13T23:11:13.138Z,101966.03
2023-02-13T23:13:40.588Z,101955.91
2023-02-13T23:16:14.372Z,101962.97
2023-02-13T23:18:40.971Z,101964.16
2023-02-13T23:21:08.953Z,101961.16
2023-02-13T23:23:38.469Z,101964.63
2023-02-13T23:26:06.590Z,101963.75
2023-02-13T23:28:34.372Z,101969.09
2023-02-13T23:31:02.673Z,101970.38
2023-02-13T23:33:31.912Z,101963.09
2023-02-13T23:35:59.328Z,101976.00
2023-02-13T23:38:26.749Z,101967.28
2023-02-13T23:40:54.436Z,101967.47
2023-02-13T23:46:12.373Z,101963.84
2023-02-13T23:48:41.173Z,101958.84
2023-02-13T23:51:08.591Z,101961.44
2023-02-13T23:53:36.509Z,101958.38
2023-02-13T23:56:27.881Z,101954.28
2023-02-13T23:58:56.896Z,101963.56
